createdAt,value
2024-02-08T00:02:42.935Z,11.78
2024-02-08T00:05:29.032Z,11.72
2024-02-08T00:08:15.178Z,11.71
2024-02-08T00:11:01.223Z,11.69
2024-02-08T00:13:47.215Z,11.66
2024-02-08T00:16:33.477Z,11.64
2024-02-08T00:19:19.571Z,11.57
2024-02-08T00:22:06.056Z,11.58
2024-02-08T00:24:55.069Z,11.53
2024-02-08T00:27:41.008Z,11.46
2024-02-08T00:30:27.185Z,11.42
2024-02-08T00:33:13.760Z,11.42
2024-02-08T00:35:59.615Z,11.37
2024-02-08T00:38:45.657Z,11.23
2024-02-08T00:41:34.790Z,11.13
2024-02-08T00:44:27.340Z,11.09
2024-02-08T00:47:13.528Z,11.02
2024-02-08T00:50:00.865Z,10.97
2024-02-08T00:52:47.031Z,10.90
2024-02-08T00:55:37.180Z,10.87
2024-02-08T00:58:23.435Z,10.91
2024-02-08T01:01:10.618Z,10.88
2024-02-08T01:03:57.255Z,10.89
2024-02-08T01:06:43.331Z,10.85
2024-02-08T01:09:29.720Z,10.85
2024-02-08T01:12:16.034Z,10.81
2024-02-08T01:15:03.764Z,10.77
2024-02-08T01:17:53.267Z,10.71
2024-02-08T01:20:39.443Z,10.71
2024-02-08T01:23:27.348Z,10.69
2024-02-08T01:26:13.397Z,10.64
2024-02-08T01:28:59.764Z,10.62
2024-02-08T01:31:45.856Z,10.59
2024-02-08T01:34:32.180Z,10.56
2024-02-08T01:37:18.790Z,10.51
2024-02-08T01:40:17.802Z,10.39
2024-02-08T01:43:06.297Z,10.41
2024-02-08T01:45:52.094Z,10.41
2024-02-08T01:48:46.400Z,10.36
2024-02-08T01:51:32.849Z,10.34
2024-02-08T01:54:20.701Z,10.31
2024-02-08T01:57:09.455Z,10.27
2024-02-08T01:59:55.736Z,10.23
2024-02-08T02:02:42.528Z,10.18
2024-02-08T02:05:30.016Z,10.16
2024-02-08T02:08:20.072Z,10.11
2024-02-08T02:11:22.895Z,10.03
2024-02-08T02:14:11.096Z,10.00
2024-02-08T02:17:20.266Z,9.89
2024-02-08T02:20:09.637Z,9.98
2024-02-08T02:22:55.895Z,9.95
2024-02-08T02:25:42.389Z,9.86
2024-02-08T02:28:30.434Z,9.82
2024-02-08T02:31:18.231Z,9.82
2024-02-08T02:34:07.376Z,9.82
2024-02-08T02:36:59.825Z,9.75
2024-02-08T02:39:46.673Z,9.74
2024-02-08T02:42:33.000Z,9.75
2024-02-08T02:45:31.139Z,9.78
2024-02-08T02:48:18.857Z,9.73
2024-02-08T02:51:05.601Z,9.74
2024-02-08T02:53:51.402Z,9.71
2024-02-08T02:56:37.542Z,9.67
2024-02-08T02:59:27.925Z,9.69
2024-02-08T03:02:14.251Z,9.65
2024-02-08T03:05:00.416Z,9.56
2024-02-08T03:07:47.409Z,9.53
2024-02-08T03:10:36.066Z,9.48
2024-02-08T03:13:22.104Z,9.49
2024-02-08T03:16:11.431Z,9.47
2024-02-08T03:18:59.074Z,9.41
2024-02-08T03:21:46.540Z,9.36
2024-02-08T03:24:37.358Z,9.33
2024-02-08T03:27:26.048Z,9.34
2024-02-08T03:30:32.308Z,9.28
2024-02-08T03:33:18.390Z,9.25
2024-02-08T03:36:08.260Z,9.26
2024-02-08T03:38:54.582Z,9.16
2024-02-08T03:41:42.265Z,9.16
2024-02-08T03:44:32.230Z,9.16
2024-02-08T03:47:18.552Z,9.13
2024-02-08T03:50:05.444Z,9.09
2024-02-08T03:52:54.757Z,9.05
2024-02-08T03:55:45.338Z,9.07
2024-02-08T03:58:32.229Z,9.04
2024-02-08T04:01:22.728Z,8.93
2024-02-08T04:04:19.514Z,8.85
2024-02-08T04:07:35.299Z,8.75
2024-02-08T04:10:35.526Z,8.85
2024-02-08T04:13:41.185Z,8.84
2024-02-08T04:16:45.870Z,8.83
2024-02-08T04:19:51.413Z,8.84
2024-02-08T04:22:58.957Z,8.86
2024-02-08T04:26:07.347Z,8.79
2024-02-08T04:29:14.862Z,8.90
2024-02-08T04:32:20.280Z,8.84
2024-02-08T04:35:26.456Z,8.87
2024-02-08T04:38:33.084Z,8.79
2024-02-08T04:41:37.814Z,8.75
2024-02-08T04:44:42.291Z,8.75
2024-02-08T04:47:46.804Z,8.72
2024-02-08T04:50:53.052Z,8.69
2024-02-08T04:53:40.914Z,8.56
2024-02-08T04:56:29.893Z,8.64
2024-02-08T04:59:22.156Z,8.59
2024-02-08T05:02:10.797Z,8.61
2024-02-08T05:04:56.817Z,8.57
2024-02-08T05:07:44.018Z,8.65
2024-02-08T05:10:30.280Z,8.62
2024-02-08T05:13:19.220Z,8.63
2024-02-08T05:16:06.607Z,8.65
2024-02-08T05:18:54.766Z,8.63
2024-02-08T05:21:44.695Z,8.62
2024-02-08T05:24:32.594Z,8.61
2024-02-08T05:27:19.356Z,8.60
2024-02-08T05:30:06.160Z,8.55
2024-02-08T05:32:53.353Z,8.54
2024-02-08T05:35:40.769Z,8.47
2024-02-08T05:38:27.361Z,8.44
2024-02-08T05:41:18.626Z,8.46
2024-02-08T05:44:08.603Z,8.44
2024-02-08T05:46:55.660Z,8.37
2024-02-08T05:49:50.994Z,8.36
2024-02-08T05:52:40.036Z,8.41
2024-02-08T05:55:26.100Z,8.46
2024-02-08T05:58:18.016Z,8.48
2024-02-08T06:01:07.037Z,8.49
2024-02-08T06:03:57.501Z,8.51
2024-02-08T06:06:54.086Z,8.57
2024-02-08T06:09:47.364Z,8.57
2024-02-08T06:12:47.655Z,8.58
2024-02-08T06:15:36.151Z,8.60
2024-02-08T06:18:26.927Z,8.63
2024-02-08T06:21:25.957Z,8.65
2024-02-08T06:24:25.360Z,8.60
2024-02-08T06:27:24.590Z,8.65
2024-02-08T06:30:20.433Z,8.67
2024-02-08T06:33:11.832Z,8.66
2024-02-08T06:35:58.537Z,8.63
2024-02-08T06:38:55.069Z,8.64
2024-02-08T06:42:08.815Z,8.68
2024-02-08T06:45:15.885Z,8.69
2024-02-08T06:48:02.529Z,8.70
2024-02-08T06:51:06.809Z,8.67
2024-02-08T06:54:13.933Z,8.67
2024-02-08T06:57:18.651Z,8.72
2024-02-08T07:00:26.752Z,8.76
2024-02-08T07:03:33.506Z,8.72
2024-02-08T07:06:46.075Z,8.80
2024-02-08T07:09:53.278Z,8.78
2024-02-08T07:12:58.283Z,8.87
2024-02-08T07:16:04.149Z,8.83
2024-02-08T07:19:09.183Z,8.84
2024-02-08T07:22:13.969Z,8.93
2024-02-08T07:25:18.748Z,9.02
2024-02-08T07:28:24.705Z,9.01
2024-02-08T07:31:30.349Z,9.10
2024-02-08T07:34:35.277Z,9.14
2024-02-08T07:37:27.001Z,9.20
2024-02-08T07:40:24.666Z,9.22
2024-02-08T07:43:17.293Z,9.31
2024-02-08T07:46:07.082Z,9.36
2024-02-08T07:49:00.017Z,9.42
2024-02-08T07:51:53.311Z,9.50
2024-02-08T07:54:43.576Z,9.53
2024-02-08T07:57:59.306Z,9.57
2024-02-08T08:00:45.665Z,9.71
2024-02-08T08:03:36.738Z,9.80
2024-02-08T08:06:24.295Z,9.88
2024-02-08T08:09:23.287Z,9.96
2024-02-08T08:12:09.461Z,10.01
2024-02-08T08:15:14.802Z,10.13
2024-02-08T08:18:02.256Z,10.20
2024-02-08T08:20:57.753Z,10.28
2024-02-08T08:24:02.183Z,10.40
2024-02-08T08:26:50.032Z,10.44
2024-02-08T08:29:44.424Z,10.54
2024-02-08T08:32:31.253Z,10.68
2024-02-08T08:35:40.391Z,10.66
2024-02-08T08:38:35.725Z,10.85
2024-02-08T08:41:25.762Z,10.92
2024-02-08T08:44:11.815Z,11.03
2024-02-08T08:47:02.193Z,11.13
2024-02-08T08:49:52.471Z,11.19
2024-02-08T08:52:49.714Z,11.28
2024-02-08T08:55:49.560Z,11.40
2024-02-08T08:58:42.546Z,11.47
2024-02-08T09:01:31.418Z,11.57
2024-02-08T09:04:27.786Z,11.59
2024-02-08T09:07:15.503Z,11.68
2024-02-08T09:10:05.496Z,11.92
2024-02-08T09:13:01.629Z,12.08
2024-02-08T09:15:58.507Z,12.25
2024-02-08T09:19:16.991Z,12.42
2024-02-08T09:22:08.007Z,12.59
2024-02-08T09:24:54.065Z,12.81
2024-02-08T09:27:40.140Z,12.97
2024-02-08T09:30:39.227Z,13.08
2024-02-08T09:33:31.586Z,13.29
2024-02-08T09:36:18.981Z,13.45
2024-02-08T09:39:16.180Z,13.57
2024-02-08T09:42:09.348Z,13.72
2024-02-08T09:45:21.364Z,13.82
2024-02-08T09:48:12.562Z,13.99
2024-02-08T09:51:01.819Z,14.13
2024-02-08T09:53:53.928Z,14.30
2024-02-08T09:56:40.756Z,14.44
2024-02-08T09:59:49.604Z,14.58
2024-02-08T10:02:38.444Z,14.77
2024-02-08T10:05:50.325Z,14.91
2024-02-08T10:08:39.808Z,15.04
2024-02-08T10:11:25.977Z,15.21
2024-02-08T10:14:33.973Z,15.27
2024-02-08T10:17:26.220Z,15.35
2024-02-08T10:20:12.996Z,15.34
2024-02-08T10:23:10.658Z,15.38
2024-02-08T10:26:17.934Z,15.40
2024-02-08T10:29:08.859Z,15.39
2024-02-08T10:31:55.556Z,15.45
2024-02-08T10:34:44.951Z,15.47
2024-02-08T10:37:50.799Z,15.51
2024-02-08T10:40:37.065Z,15.55
2024-02-08T10:43:26.906Z,15.75
2024-02-08T10:46:18.337Z,15.76
2024-02-08T10:49:10.668Z,15.97
2024-02-08T10:52:02.621Z,16.13
2024-02-08T10:54:53.901Z,16.31
2024-02-08T10:57:41.580Z,16.52
2024-02-08T11:00:41.949Z,16.66
2024-02-08T11:03:39.093Z,16.90
2024-02-08T11:06:30.750Z,17.06
2024-02-08T11:09:19.806Z,17.27
2024-02-08T11:12:18.322Z,17.28
2024-02-08T11:15:21.229Z,17.42
2024-02-08T11:18:12.360Z,17.69
2024-02-08T11:21:05.822Z,17.80
2024-02-08T11:23:52.787Z,17.67
2024-02-08T11:26:50.552Z,18.02
2024-02-08T11:29:47.119Z,18.14
2024-02-08T11:32:35.826Z,18.40
2024-02-08T11:35:24.405Z,18.52
2024-02-08T11:38:17.462Z,18.64
2024-02-08T11:41:11.151Z,18.73
2024-02-08T11:44:04.247Z,18.85
2024-02-08T11:46:59.195Z,19.06
2024-02-08T11:50:02.820Z,19.08
2024-02-08T11:52:56.468Z,19.00
2024-02-08T11:55:46.474Z,19.32
2024-02-08T11:58:36.979Z,19.34
2024-02-08T12:01:27.289Z,19.49
2024-02-08T12:04:17.646Z,19.56
2024-02-08T12:07:05.927Z,19.67
2024-02-08T12:10:01.782Z,19.84
2024-02-08T12:12:54.483Z,20.09
2024-02-08T12:15:46.276Z,20.03
2024-02-08T12:18:32.336Z,20.42
2024-02-08T12:21:19.664Z,20.59
2024-02-08T12:24:06.062Z,20.58
2024-02-08T12:26:56.352Z,20.53
2024-02-08T12:29:47.304Z,20.44
2024-02-08T12:32:34.850Z,20.28
2024-02-08T12:35:22.607Z,20.15
2024-02-08T12:38:10.350Z,19.95
2024-02-08T12:40:58.356Z,19.79
2024-02-08T12:43:48.019Z,19.70
2024-02-08T12:46:34.211Z,19.57
2024-02-08T12:49:20.467Z,19.43
2024-02-08T12:52:11.320Z,19.29
2024-02-08T12:54:57.706Z,19.13
2024-02-08T12:57:43.830Z,18.97
2024-02-08T13:00:36.997Z,18.82
2024-02-08T13:03:25.749Z,18.67
2024-02-08T13:06:15.541Z,18.55
2024-02-08T13:09:27.215Z,18.45
2024-02-08T13:12:23.130Z,18.37
2024-02-08T13:15:11.259Z,18.27
2024-02-08T13:17:58.311Z,18.27
2024-02-08T13:20:45.459Z,18.31
2024-02-08T13:23:34.411Z,18.31
2024-02-08T13:26:29.533Z,18.34
2024-02-08T13:29:19.043Z,18.39
2024-02-08T13:32:05.296Z,18.37
2024-02-08T13:34:52.589Z,18.37
2024-02-08T13:37:38.936Z,18.43
2024-02-08T13:40:26.331Z,18.38
2024-02-08T13:43:15.380Z,18.44
2024-02-08T13:46:02.637Z,18.47
2024-02-08T13:48:50.537Z,18.40
2024-02-08T13:51:36.492Z,18.40
2024-02-08T13:54:22.495Z,18.30
2024-02-08T13:57:15.443Z,18.27
2024-02-08T14:00:05.472Z,18.16
2024-02-08T14:02:58.830Z,18.22
2024-02-08T14:05:51.815Z,18.17
2024-02-08T14:08:44.320Z,18.10
2024-02-08T14:11:40.231Z,18.10
2024-02-08T14:14:41.396Z,18.22
2024-02-08T14:17:35.751Z,18.37
2024-02-08T14:20:32.606Z,18.41
2024-02-08T14:23:31.365Z,18.38
2024-02-08T14:26:17.809Z,18.44
2024-02-08T14:29:06.734Z,18.42
2024-02-08T14:31:54.283Z,18.46
2024-02-08T14:34:41.523Z,18.41
2024-02-08T14:37:29.762Z,18.35
2024-02-08T14:40:16.708Z,18.22
2024-02-08T14:43:07.306Z,18.07
2024-02-08T14:45:54.665Z,17.99
2024-02-08T14:48:40.383Z,17.80
2024-02-08T14:51:26.194Z,17.70
2024-02-08T14:54:14.108Z,17.58
2024-02-08T14:57:06.922Z,17.40
2024-02-08T15:00:06.965Z,17.29
2024-02-08T15:02:57.078Z,17.14
2024-02-08T15:05:50.067Z,17.08
2024-02-08T15:08:56.264Z,16.98
2024-02-08T15:11:59.180Z,16.91
2024-02-08T15:14:46.917Z,16.83
2024-02-08T15:17:44.267Z,16.69
2024-02-08T15:20:44.875Z,16.69
2024-02-08T15:23:35.397Z,16.58
2024-02-08T15:26:26.665Z,16.50
2024-02-08T15:29:32.011Z,16.38
2024-02-08T15:32:19.784Z,16.33
2024-02-08T15:35:06.597Z,16.27
2024-02-08T15:38:11.251Z,16.17
2024-02-08T15:41:08.148Z,16.13
2024-02-08T15:43:54.958Z,16.06
2024-02-08T15:46:42.830Z,15.98
2024-02-08T15:49:30.453Z,15.92
2024-02-08T15:52:17.238Z,15.88
2024-02-08T15:55:17.698Z,15.79
2024-02-08T15:58:27.637Z,15.74
2024-02-08T16:01:22.044Z,15.69
2024-02-08T16:04:27.753Z,15.32
2024-02-08T16:07:18.737Z,15.48
2024-02-08T16:10:21.128Z,15.42
2024-02-08T16:13:08.003Z,15.40
2024-02-08T16:15:58.289Z,15.45
2024-02-08T16:18:51.082Z,15.40
2024-02-08T16:21:36.958Z,15.41
2024-02-08T16:24:23.153Z,15.39
2024-02-08T16:27:14.426Z,15.34
2024-02-08T16:30:09.250Z,15.32
2024-02-08T16:33:09.677Z,15.27
2024-02-08T16:36:10.409Z,15.29
2024-02-08T16:39:15.889Z,15.26
2024-02-08T16:42:37.837Z,15.28
2024-02-08T16:45:37.428Z,15.30
2024-02-08T16:48:34.732Z,15.28
2024-02-08T16:51:28.058Z,15.29
2024-02-08T16:54:33.373Z,15.32
2024-02-08T16:57:22.777Z,15.28
2024-02-08T17:00:28.260Z,15.34
2024-02-08T17:03:33.684Z,15.29
2024-02-08T17:06:35.404Z,15.32
2024-02-08T17:09:25.942Z,15.26
2024-02-08T17:12:29.485Z,15.23
2024-02-08T17:15:51.049Z,15.27
2024-02-08T17:18:58.341Z,15.23
2024-02-08T17:21:53.591Z,15.23
2024-02-08T17:24:54.229Z,15.28
2024-02-08T17:27:50.667Z,15.23
2024-02-08T17:31:03.418Z,15.28
2024-02-08T17:33:51.312Z,15.20
2024-02-08T17:36:45.485Z,15.23
2024-02-08T17:39:44.227Z,15.19
2024-02-08T17:42:31.926Z,15.20
2024-02-08T17:45:21.470Z,15.16
2024-02-08T17:48:13.181Z,15.17
2024-02-08T17:51:08.726Z,15.10
2024-02-08T17:53:54.885Z,15.09
2024-02-08T17:56:46.998Z,15.05
2024-02-08T17:59:33.024Z,15.01
2024-02-08T18:02:22.829Z,14.94
2024-02-08T18:05:16.446Z,14.97
2024-02-08T18:08:09.021Z,14.89
2024-02-08T18:10:56.255Z,14.90
2024-02-08T18:13:47.398Z,14.88
2024-02-08T18:16:37.266Z,14.92
2024-02-08T18:19:33.943Z,14.93
2024-02-08T18:22:30.215Z,14.94
2024-02-08T18:25:30.414Z,14.92
2024-02-08T18:28:19.857Z,14.87
2024-02-08T18:31:09.847Z,14.86
2024-02-08T18:33:58.553Z,14.86
2024-02-08T18:36:46.379Z,14.85
2024-02-08T18:39:34.178Z,14.83
2024-02-08T18:42:23.771Z,14.82
2024-02-08T18:45:17.975Z,14.76
2024-02-08T18:48:05.839Z,14.73
2024-02-08T18:50:53.629Z,14.73
2024-02-08T18:53:39.812Z,14.77
2024-02-08T18:56:27.226Z,14.69
2024-02-08T18:59:13.841Z,14.71
2024-02-08T19:02:09.972Z,14.71
2024-02-08T19:04:59.909Z,14.70
2024-02-08T19:07:46.972Z,14.64
2024-02-08T19:10:37.829Z,14.66
2024-02-08T19:13:30.172Z,14.63
2024-02-08T19:16:17.749Z,14.58
2024-02-08T19:19:04.684Z,14.62
2024-02-08T19:21:52.123Z,14.54
2024-02-08T19:24:39.862Z,14.55
2024-02-08T19:27:27.532Z,14.53
2024-02-08T19:30:14.404Z,14.51
2024-02-08T19:33:00.624Z,14.43
2024-02-08T19:35:51.402Z,14.42
2024-02-08T19:38:37.447Z,14.34
2024-02-08T19:41:31.428Z,14.31
2024-02-08T19:44:27.810Z,14.29
2024-02-08T19:47:15.326Z,14.27
2024-02-08T19:50:08.252Z,14.25
2024-02-08T19:52:55.386Z,14.23
2024-02-08T19:55:42.842Z,14.23
2024-02-08T19:58:30.050Z,14.19
2024-02-08T20:01:24.319Z,14.18
2024-02-08T20:04:15.109Z,14.25
2024-02-08T20:07:06.227Z,14.23
2024-02-08T20:09:56.054Z,14.15
2024-02-08T20:12:49.775Z,14.13
2024-02-08T20:15:38.337Z,13.88
2024-02-08T20:18:26.298Z,14.04
2024-02-08T20:21:14.154Z,13.98
2024-02-08T20:24:04.398Z,13.96
2024-02-08T20:26:52.016Z,13.93
2024-02-08T20:29:38.548Z,13.89
2024-02-08T20:32:30.052Z,13.88
2024-02-08T20:35:16.669Z,13.88
2024-02-08T20:38:07.246Z,13.88
2024-02-08T20:40:57.435Z,13.90
2024-02-08T20:43:49.970Z,13.94
2024-02-08T20:46:40.945Z,13.84
2024-02-08T20:49:35.073Z,13.86
2024-02-08T20:52:23.302Z,13.73
2024-02-08T20:55:18.431Z,13.73
2024-02-08T20:58:12.376Z,13.65
2024-02-08T21:01:00.598Z,13.37
2024-02-08T21:03:47.198Z,13.48
2024-02-08T21:06:35.353Z,13.54
2024-02-08T21:09:22.587Z,13.47
2024-02-08T21:12:11.569Z,13.47
2024-02-08T21:15:00.186Z,13.44
2024-02-08T21:17:47.184Z,13.39
2024-02-08T21:20:36.699Z,13.34
2024-02-08T21:23:23.344Z,13.28
2024-02-08T21:26:10.492Z,13.25
2024-02-08T21:28:56.468Z,13.18
2024-02-08T21:31:48.567Z,13.10
2024-02-08T21:34:37.468Z,13.08
2024-02-08T21:37:24.763Z,13.06
2024-02-08T21:40:14.514Z,13.03
2024-02-08T21:43:01.260Z,13.06
2024-02-08T21:45:48.488Z,13.03
2024-02-08T21:48:38.797Z,13.02
2024-02-08T21:51:27.299Z,13.00
2024-02-08T21:54:13.643Z,12.98
2024-02-08T21:57:05.287Z,12.97
2024-02-08T21:59:58.921Z,12.91
2024-02-08T22:02:47.531Z,12.93
2024-02-08T22:05:33.877Z,12.90
2024-02-08T22:08:22.784Z,12.85
2024-02-08T22:11:09.985Z,12.81
2024-02-08T22:13:58.075Z,12.85
2024-02-08T22:16:45.325Z,12.80
2024-02-08T22:19:39.689Z,12.79
2024-02-08T22:22:44.963Z,12.66
2024-02-08T22:25:44.514Z,12.66
2024-02-08T22:28:34.629Z,12.75
2024-02-08T22:31:28.060Z,12.73
2024-02-08T22:34:24.630Z,12.60
2024-02-08T22:37:11.023Z,12.62
2024-02-08T22:39:57.275Z,12.61
2024-02-08T22:42:43.194Z,12.56
2024-02-08T22:45:30.957Z,12.50
2024-02-08T22:48:17.130Z,12.47
2024-02-08T22:51:07.511Z,12.39
2024-02-08T22:53:55.599Z,12.39
2024-02-08T22:56:44.818Z,12.32
2024-02-08T22:59:45.716Z,12.23
2024-02-08T23:02:36.562Z,12.19
2024-02-08T23:05:32.859Z,12.21
2024-02-08T23:08:19.007Z,12.22
2024-02-08T23:11:05.263Z,12.22
2024-02-08T23:13:52.640Z,12.16
2024-02-08T23:16:41.896Z,12.15
2024-02-08T23:19:33.832Z,12.18
2024-02-08T23:22:22.850Z,12.12
2024-02-08T23:25:10.249Z,12.15
2024-02-08T23:27:57.164Z,12.11
2024-02-08T23:30:45.691Z,12.08
2024-02-08T23:33:32.501Z,12.06
2024-02-08T23:36:21.005Z,11.98
2024-02-08T23:39:08.454Z,12.04
2024-02-08T23:41:57.595Z,12.01
2024-02-08T23:44:43.739Z,12.03
2024-02-08T23:47:29.862Z,12.01
2024-02-08T23:50:15.826Z,11.95
2024-02-08T23:53:05.388Z,11.97
2024-02-08T23:55:52.551Z,11.95
2024-02-08T23:58:42.133Z,11.92
